createdAt,value
2017-05-05T00:01:35.246Z,15.35
2017-05-05T00:04:03.121Z,15.25
2017-05-05T00:06:30.979Z,16.52
2017-05-05T00:08:58.838Z,15.27
2017-05-05T00:11:26.711Z,16.40
2017-05-05T00:13:54.580Z,16.43
2017-05-05T00:16:22.439Z,17.13
2017-05-05T00:18:49.958Z,18.38
2017-05-05T00:21:17.813Z,17.88
2017-05-05T00:23:46.057Z,17.08
2017-05-05T00:26:13.910Z,15.87
2017-05-05T00:28:41.786Z,17.98
2017-05-05T00:31:09.638Z,18.68
2017-05-05T00:33:37.516Z,16.88
2017-05-05T00:36:05.381Z,17.83
2017-05-05T00:38:33.252Z,17.23
2017-05-05T00:41:01.119Z,18.37
2017-05-05T00:43:29.001Z,17.82
2017-05-05T00:45:56.860Z,18.10
2017-05-05T00:48:24.741Z,17.48
2017-05-05T00:50:52.592Z,19.45
2017-05-05T00:53:20.052Z,18.20
2017-05-05T00:55:47.922Z,17.18
2017-05-05T00:58:15.798Z,18.30
2017-05-05T01:00:43.665Z,17.90
2017-05-05T01:03:11.543Z,17.20
2017-05-05T01:05:39.410Z,18.68
2017-05-05T01:08:07.634Z,18.10
2017-05-05T01:10:35.498Z,17.73
2017-05-05T01:13:02.981Z,17.60
2017-05-05T01:15:31.471Z,17.90
2017-05-05T01:17:58.931Z,17.80
2017-05-05T01:20:26.414Z,17.45
2017-05-05T01:22:53.895Z,18.07
2017-05-05T01:25:21.755Z,18.67
2017-05-05T01:27:49.635Z,18.87
2017-05-05T01:30:17.491Z,17.52
2017-05-05T01:32:45.348Z,17.68
2017-05-05T01:35:13.483Z,17.30
2017-05-05T01:37:41.344Z,19.00
2017-05-05T01:40:09.211Z,18.13
2017-05-05T01:42:37.476Z,18.80
2017-05-05T01:45:05.327Z,18.37
2017-05-05T01:47:32.789Z,19.65
2017-05-05T01:50:01.047Z,17.97
2017-05-05T01:52:28.907Z,17.15
2017-05-05T01:54:56.758Z,18.75
2017-05-05T01:57:24.866Z,17.33
2017-05-05T01:59:52.711Z,16.47
2017-05-05T02:02:20.171Z,17.90
2017-05-05T02:04:48.142Z,16.58
2017-05-05T02:07:16.008Z,18.13
2017-05-05T02:09:43.867Z,17.63
2017-05-05T02:12:12.038Z,18.28
2017-05-05T02:14:39.502Z,18.17
2017-05-05T02:17:07.359Z,18.00
2017-05-05T02:19:35.038Z,17.00
2017-05-05T02:22:02.896Z,17.27
2017-05-05T02:24:30.755Z,16.10
2017-05-05T02:26:59.784Z,17.48
2017-05-05T02:29:27.675Z,15.65
2017-05-05T02:31:55.915Z,18.20
2017-05-05T02:34:23.931Z,17.98
2017-05-05T02:36:51.398Z,17.78
2017-05-05T02:39:19.299Z,17.08
2017-05-05T02:41:47.661Z,17.20
2017-05-05T02:44:15.528Z,18.55
2017-05-05T02:46:43.391Z,16.20
2017-05-05T02:49:11.568Z,15.87
2017-05-05T02:51:39.044Z,17.60
2017-05-05T02:54:06.519Z,15.70
2017-05-05T02:56:34.414Z,15.20
2017-05-05T02:59:02.284Z,15.15
2017-05-05T03:01:30.156Z,16.00
2017-05-05T03:03:57.945Z,14.38
2017-05-05T03:06:25.808Z,16.58
2017-05-05T03:08:53.680Z,15.32
2017-05-05T03:11:22.069Z,16.93
2017-05-05T03:13:49.936Z,16.03
2017-05-05T03:16:17.800Z,16.20
2017-05-05T03:18:46.109Z,14.40
2017-05-05T03:21:13.970Z,16.40
2017-05-05T03:23:41.840Z,14.70
2017-05-05T03:26:09.939Z,15.60
2017-05-05T03:28:37.419Z,16.88
2017-05-05T03:31:04.888Z,14.78
2017-05-05T03:33:32.782Z,16.23
2017-05-05T03:36:00.656Z,17.17
2017-05-05T03:38:28.520Z,17.50
2017-05-05T03:40:56.408Z,17.03
2017-05-05T03:43:24.264Z,16.85
2017-05-05T03:45:52.123Z,15.42
2017-05-05T03:48:19.999Z,16.20
2017-05-05T03:50:47.855Z,17.62
2017-05-05T03:53:15.715Z,16.37
2017-05-05T03:55:43.794Z,17.18
2017-05-05T03:58:11.648Z,15.72
2017-05-05T04:00:39.507Z,17.10
2017-05-05T04:03:07.474Z,17.70
2017-05-05T04:05:35.343Z,18.08
2017-05-05T04:08:02.803Z,18.50
2017-05-05T04:10:30.957Z,15.97
2017-05-05T04:12:58.814Z,16.48
2017-05-05T04:15:26.671Z,16.77
2017-05-05T04:17:54.837Z,18.10
2017-05-05T04:20:22.300Z,15.75
2017-05-05T04:22:49.761Z,15.55
2017-05-05T04:25:17.456Z,17.73
2017-05-05T04:27:45.308Z,15.28
2017-05-05T04:30:13.175Z,16.33
2017-05-05T04:32:41.347Z,16.13
2017-05-05T04:35:08.817Z,16.87
2017-05-05T04:37:36.280Z,17.10
2017-05-05T04:40:04.158Z,18.78
2017-05-05T04:42:31.623Z,16.67
2017-05-05T04:44:59.484Z,16.13
2017-05-05T04:47:27.615Z,15.62
2017-05-05T04:49:55.475Z,15.90
2017-05-05T04:52:23.331Z,16.28
2017-05-05T04:54:50.821Z,15.08
2017-05-05T04:57:18.679Z,16.77
2017-05-05T04:59:46.535Z,15.72
2017-05-05T05:02:14.503Z,16.68
2017-05-05T05:04:42.359Z,17.47
2017-05-05T05:07:09.832Z,16.17
2017-05-05T05:09:37.978Z,15.98
2017-05-05T05:12:05.838Z,15.60
2017-05-05T05:14:33.304Z,15.07
2017-05-05T05:17:01.440Z,14.35
2017-05-05T05:19:29.301Z,16.65
2017-05-05T05:21:57.169Z,16.30
2017-05-05T05:24:25.303Z,14.40
2017-05-05T05:26:53.161Z,14.15
2017-05-05T05:29:20.623Z,15.30
2017-05-05T05:31:48.389Z,15.40
2017-05-05T05:34:15.851Z,14.47
2017-05-05T05:36:43.714Z,14.05
2017-05-05T05:39:11.886Z,14.33
2017-05-05T05:41:39.742Z,14.53
2017-05-05T05:44:07.607Z,15.48
2017-05-05T05:46:45.053Z,15.65
2017-05-05T05:49:12.523Z,15.12
2017-05-05T05:51:39.987Z,14.70
2017-05-05T05:54:08.293Z,14.63
2017-05-05T05:56:35.762Z,16.27
2017-05-05T05:59:03.258Z,16.40
2017-05-05T06:01:31.278Z,15.35
2017-05-05T06:03:59.148Z,14.43
2017-05-05T06:06:27.243Z,15.38
2017-05-05T06:08:54.775Z,16.83
2017-05-05T06:11:22.638Z,16.10
2017-05-05T06:13:50.814Z,14.33
2017-05-05T06:16:18.283Z,15.75
2017-05-05T06:18:46.151Z,15.23
2017-05-05T06:21:14.142Z,15.10
2017-05-05T06:23:42.004Z,15.28
2017-05-05T06:26:09.867Z,16.30
2017-05-05T06:28:37.903Z,14.30
2017-05-05T06:31:06.644Z,15.55
2017-05-05T06:33:34.516Z,14.20
2017-05-05T06:36:03.146Z,14.20
2017-05-05T06:38:31.006Z,13.28
2017-05-05T06:40:58.471Z,13.07
2017-05-05T06:43:26.250Z,12.83
2017-05-05T06:45:54.107Z,11.80
2017-05-05T06:48:21.966Z,13.37
2017-05-05T06:50:49.822Z,12.27
2017-05-05T06:53:17.287Z,12.33
2017-05-05T06:55:45.571Z,11.73
2017-05-05T06:58:13.430Z,12.65
2017-05-05T07:00:41.295Z,11.60
2017-05-05T07:03:09.168Z,12.55
2017-05-05T07:05:36.636Z,10.98
2017-05-05T07:08:04.494Z,10.40
2017-05-05T07:10:32.380Z,9.30
2017-05-05T07:12:59.843Z,10.47
2017-05-05T07:15:27.708Z,9.52
2017-05-05T07:17:56.054Z,9.43
2017-05-05T07:20:23.917Z,10.08
2017-05-05T07:22:51.791Z,9.70
2017-05-05T07:25:19.855Z,8.85
2017-05-05T07:27:47.718Z,9.97
2017-05-05T07:30:15.579Z,9.12
2017-05-05T07:32:43.561Z,8.85
2017-05-05T07:35:11.031Z,8.57
2017-05-05T07:37:38.490Z,8.85
2017-05-05T07:40:06.851Z,8.75
2017-05-05T07:42:34.311Z,8.75
2017-05-05T07:45:01.777Z,10.02
2017-05-05T07:47:29.851Z,9.93
2017-05-05T07:49:57.707Z,8.42
2017-05-05T07:52:25.168Z,9.23
2017-05-05T07:54:53.437Z,9.27
2017-05-05T07:57:21.300Z,8.52
2017-05-05T07:59:48.767Z,9.20
2017-05-05T08:02:17.030Z,8.25
2017-05-05T08:04:44.887Z,8.53
2017-05-05T08:07:12.346Z,9.37
2017-05-05T08:09:40.583Z,8.20
2017-05-05T08:12:08.048Z,10.00
2017-05-05T08:14:36.099Z,9.03
2017-05-05T08:17:03.975Z,8.07
2017-05-05T08:19:31.439Z,8.80
2017-05-05T08:21:59.668Z,8.43
2017-05-05T08:24:27.755Z,8.97
2017-05-05T08:26:55.611Z,7.85
2017-05-05T08:29:23.465Z,8.45
2017-05-05T08:31:51.452Z,8.55
2017-05-05T08:34:19.304Z,8.67
2017-05-05T08:36:47.165Z,7.63
2017-05-05T08:39:15.250Z,7.50
2017-05-05T08:41:42.714Z,7.72
2017-05-05T08:44:10.596Z,7.60
2017-05-05T08:46:38.619Z,8.37
2017-05-05T08:49:06.533Z,7.80
2017-05-05T08:51:34.000Z,7.07
2017-05-05T08:54:02.222Z,7.35
2017-05-05T08:56:30.082Z,7.30
2017-05-05T08:58:57.542Z,7.92
2017-05-05T09:01:25.511Z,8.00
2017-05-05T09:03:53.364Z,7.15
2017-05-05T09:06:20.817Z,7.30
2017-05-05T09:08:48.959Z,7.47
2017-05-05T09:11:16.819Z,7.45
2017-05-05T09:13:44.671Z,7.08
2017-05-05T09:16:12.703Z,7.28
2017-05-05T09:18:40.554Z,6.65
2017-05-05T09:21:08.402Z,6.08
2017-05-05T09:23:36.574Z,6.25
2017-05-05T09:26:04.430Z,5.50
2017-05-05T09:28:32.655Z,6.23
2017-05-05T09:31:00.699Z,6.50
2017-05-05T09:33:28.550Z,6.90
2017-05-05T09:35:56.400Z,7.30
2017-05-05T09:38:24.536Z,6.97
2017-05-05T09:40:52.410Z,5.82
2017-05-05T09:43:20.297Z,6.12
2017-05-05T09:45:48.168Z,5.30
2017-05-05T09:48:15.630Z,5.22
2017-05-05T09:50:43.725Z,4.70
2017-05-05T09:53:11.584Z,5.67
2017-05-05T09:55:39.445Z,5.27
2017-05-05T09:58:07.625Z,5.20
2017-05-05T10:00:35.484Z,4.82
2017-05-05T10:03:03.440Z,4.88
2017-05-05T10:05:33.942Z,4.58
2017-05-05T10:08:01.823Z,4.83
2017-05-05T10:10:32.064Z,5.38
2017-05-05T10:13:02.517Z,5.12
2017-05-05T10:15:33.827Z,4.73
2017-05-05T10:18:01.785Z,5.40
2017-05-05T10:20:31.088Z,5.48
2017-05-05T10:22:58.605Z,4.90
2017-05-05T10:25:26.146Z,4.55
2017-05-05T10:27:53.606Z,5.67
2017-05-05T10:30:21.332Z,4.00
2017-05-05T10:32:48.800Z,4.33
2017-05-05T10:35:17.030Z,4.80
2017-05-05T10:37:45.193Z,4.65
2017-05-05T10:40:13.047Z,4.88
2017-05-05T10:42:40.504Z,4.63
2017-05-05T10:45:08.198Z,4.85
2017-05-05T10:47:35.658Z,4.88
2017-05-05T10:50:03.523Z,3.52
2017-05-05T10:52:31.779Z,4.23
2017-05-05T10:54:59.630Z,3.53
2017-05-05T10:57:27.248Z,4.37
2017-05-05T10:59:55.692Z,4.67
2017-05-05T11:02:25.827Z,4.80
2017-05-05T11:04:53.796Z,4.30
2017-05-05T11:07:22.057Z,5.88
2017-05-05T11:09:49.518Z,3.90
2017-05-05T11:12:17.369Z,4.22
2017-05-05T11:14:45.346Z,4.75
2017-05-05T11:17:13.209Z,4.97
2017-05-05T11:19:41.306Z,4.92
2017-05-05T11:22:09.550Z,4.72
2017-05-05T11:24:37.411Z,4.45
2017-05-05T11:27:06.057Z,4.75
2017-05-05T11:29:34.276Z,4.73
2017-05-05T11:32:02.134Z,4.98
2017-05-05T11:34:29.986Z,5.08
2017-05-05T11:36:57.867Z,4.87
2017-05-05T11:39:25.722Z,4.63
2017-05-05T11:41:53.578Z,3.82
2017-05-05T11:44:21.779Z,4.57
2017-05-05T11:46:49.272Z,4.45
2017-05-05T11:49:16.741Z,4.45
2017-05-05T11:51:45.384Z,4.38
2017-05-05T11:54:13.259Z,4.50
2017-05-05T11:56:41.932Z,4.18
2017-05-05T11:59:10.210Z,4.10
2017-05-05T12:01:37.664Z,3.98
2017-05-05T12:04:05.518Z,4.88
2017-05-05T12:06:33.099Z,3.90
2017-05-05T12:09:00.958Z,4.35
2017-05-05T12:11:28.418Z,3.73
2017-05-05T12:13:56.571Z,4.55
2017-05-05T12:16:24.193Z,4.22
2017-05-05T12:18:52.062Z,3.95
2017-05-05T12:21:20.306Z,3.77
2017-05-05T12:23:48.163Z,3.42
2017-05-05T12:26:16.162Z,4.25
2017-05-05T12:28:44.056Z,3.83
2017-05-05T12:31:11.519Z,3.98
2017-05-05T12:33:39.384Z,4.53
2017-05-05T12:36:07.575Z,3.68
2017-05-05T12:38:35.431Z,4.00
2017-05-05T12:41:02.898Z,4.32
2017-05-05T12:43:30.872Z,4.18
2017-05-05T12:45:58.730Z,3.88
2017-05-05T12:48:26.590Z,3.72
2017-05-05T12:50:54.774Z,3.57
2017-05-05T12:53:22.632Z,4.55
2017-05-05T12:55:50.556Z,4.25
2017-05-05T12:58:18.695Z,3.58
2017-05-05T13:00:46.633Z,5.02
2017-05-05T13:03:14.090Z,4.17
2017-05-05T13:05:42.648Z,4.07
2017-05-05T13:08:10.696Z,4.83
2017-05-05T13:10:38.607Z,5.22
2017-05-05T13:13:06.596Z,4.72
2017-05-05T13:15:34.055Z,4.77
2017-05-05T13:18:01.919Z,4.30
2017-05-05T13:20:30.084Z,4.47
2017-05-05T13:22:57.943Z,5.12
2017-05-05T13:25:25.404Z,3.67
2017-05-05T13:27:53.686Z,4.67
2017-05-05T13:30:21.547Z,3.60
2017-05-05T13:32:49.011Z,3.67
2017-05-05T13:35:16.979Z,4.22
2017-05-05T13:37:44.446Z,4.68
2017-05-05T13:40:12.311Z,3.57
2017-05-05T13:42:40.579Z,3.78
2017-05-05T13:45:08.448Z,3.85
2017-05-05T13:47:38.224Z,3.85
2017-05-05T13:50:06.019Z,3.52
2017-05-05T13:52:33.874Z,3.47
2017-05-05T13:55:01.332Z,3.55
2017-05-05T13:57:29.298Z,3.27
2017-05-05T13:59:57.159Z,3.00
2017-05-05T14:02:24.619Z,2.68
2017-05-05T14:04:52.910Z,2.27
2017-05-05T14:07:20.781Z,2.75
2017-05-05T14:09:48.640Z,2.70
2017-05-05T14:12:16.819Z,2.93
2017-05-05T14:14:44.683Z,3.58
2017-05-05T14:17:12.544Z,2.50
2017-05-05T14:19:40.412Z,3.10
2017-05-05T14:22:08.271Z,3.48
2017-05-05T14:24:35.738Z,2.28
2017-05-05T14:27:03.875Z,2.73
2017-05-05T14:29:31.351Z,2.48
2017-05-05T14:31:59.208Z,3.65
2017-05-05T14:34:27.202Z,2.23
2017-05-05T14:36:54.668Z,2.88
2017-05-05T14:39:22.531Z,3.07
2017-05-05T14:41:50.899Z,2.37
2017-05-05T14:44:18.375Z,2.38
2017-05-05T14:46:46.238Z,2.48
2017-05-05T14:49:14.373Z,2.90
2017-05-05T14:51:42.222Z,3.08
2017-05-05T14:54:10.826Z,2.62
2017-05-05T14:56:39.016Z,2.50
2017-05-05T14:59:06.479Z,2.52
2017-05-05T15:01:34.761Z,2.90
2017-05-05T15:04:02.927Z,2.48
2017-05-05T15:06:30.796Z,2.58
2017-05-05T15:08:58.655Z,2.75
2017-05-05T15:11:26.826Z,2.90
2017-05-05T15:13:54.295Z,2.40
2017-05-05T15:16:21.751Z,2.55
2017-05-05T15:18:49.913Z,2.68
2017-05-05T15:21:17.375Z,3.30
2017-05-05T15:23:45.239Z,2.78
2017-05-05T15:26:13.406Z,3.57
2017-05-05T15:28:41.264Z,2.60
2017-05-05T15:31:09.124Z,3.25
2017-05-05T15:33:37.311Z,3.03
2017-05-05T15:36:05.177Z,2.92
2017-05-05T15:38:33.030Z,3.38
2017-05-05T15:41:00.586Z,2.65
2017-05-05T15:43:28.050Z,3.55
2017-05-05T15:45:55.512Z,3.25
2017-05-05T15:48:23.494Z,3.63
2017-05-05T15:50:51.349Z,4.00
2017-05-05T15:53:19.206Z,3.53
2017-05-05T15:55:47.194Z,3.12
2017-05-05T15:58:15.048Z,3.18
2017-05-05T16:00:42.501Z,2.60
2017-05-05T16:03:10.251Z,2.53
2017-05-05T16:05:37.710Z,3.32
2017-05-05T16:08:05.563Z,3.83
2017-05-05T16:10:33.229Z,3.40
2017-05-05T16:13:00.690Z,3.02
2017-05-05T16:15:28.543Z,3.63
2017-05-05T16:17:56.754Z,3.28
2017-05-05T16:20:24.215Z,3.47
2017-05-05T16:22:52.080Z,3.12
2017-05-05T16:25:20.361Z,2.70
2017-05-05T16:27:48.236Z,2.62
2017-05-05T16:30:16.103Z,2.57
2017-05-05T16:32:45.477Z,2.85
2017-05-05T16:35:13.344Z,2.48
2017-05-05T16:37:40.816Z,2.67
2017-05-05T16:40:09.092Z,2.25
2017-05-05T16:42:36.964Z,2.50
2017-05-05T16:45:04.834Z,1.98
2017-05-05T16:47:32.821Z,2.75
2017-05-05T16:50:00.687Z,2.77
2017-05-05T16:52:28.551Z,3.53
2017-05-05T16:54:56.537Z,2.42
2017-05-05T16:57:24.403Z,2.43
2017-05-05T16:59:52.649Z,2.57
2017-05-05T17:02:20.808Z,2.12
2017-05-05T17:04:48.276Z,2.07
2017-05-05T17:07:16.285Z,2.85
2017-05-05T17:09:44.675Z,2.78
2017-05-05T17:12:12.157Z,2.92
2017-05-05T17:14:39.631Z,3.32
2017-05-05T17:17:08.011Z,3.43
2017-05-05T17:19:35.884Z,3.05
2017-05-05T17:22:03.753Z,3.52
2017-05-05T17:24:31.911Z,3.12
2017-05-05T17:27:00.094Z,3.82
2017-05-05T17:29:28.017Z,3.90
2017-05-05T17:31:56.246Z,3.42
2017-05-05T17:34:24.108Z,3.43
2017-05-05T17:36:52.248Z,3.73
2017-05-05T17:39:20.288Z,3.17
2017-05-05T17:41:48.272Z,3.78
2017-05-05T17:44:15.772Z,3.43
2017-05-05T17:46:43.635Z,3.85
2017-05-05T17:49:11.499Z,3.75
2017-05-05T17:51:39.264Z,3.88
2017-05-05T17:54:08.915Z,3.32
2017-05-05T17:56:36.895Z,3.53
2017-05-05T17:59:04.962Z,3.48
2017-05-05T18:01:32.818Z,4.47
2017-05-05T18:04:01.042Z,3.82
2017-05-05T18:06:29.221Z,3.90
2017-05-05T18:08:57.082Z,4.00
2017-05-05T18:11:24.543Z,3.52
2017-05-05T18:13:52.819Z,3.73
2017-05-05T18:16:20.674Z,3.60
2017-05-05T18:18:48.135Z,3.87
2017-05-05T18:21:15.700Z,3.93
2017-05-05T18:23:43.556Z,3.65
2017-05-05T18:26:11.431Z,3.10
2017-05-05T18:28:39.209Z,3.15
2017-05-05T18:31:06.690Z,3.53
2017-05-05T18:33:34.765Z,4.27
2017-05-05T18:36:03.867Z,3.03
2017-05-05T18:38:31.767Z,3.47
2017-05-05T18:40:59.249Z,3.85
2017-05-05T18:43:27.850Z,3.83
2017-05-05T18:45:55.791Z,3.98
2017-05-05T18:48:23.647Z,4.37
2017-05-05T18:50:52.015Z,3.77
2017-05-05T18:53:19.876Z,4.23
2017-05-05T18:55:47.728Z,4.45
2017-05-05T18:58:15.700Z,4.77
2017-05-05T19:00:43.925Z,4.03
2017-05-05T19:03:11.782Z,3.87
2017-05-05T19:05:40.157Z,4.30
2017-05-05T19:08:08.018Z,3.98
2017-05-05T19:10:35.496Z,4.97
2017-05-05T19:13:03.755Z,4.62
2017-05-05T19:15:31.566Z,4.17
2017-05-05T19:17:59.570Z,4.12
2017-05-05T19:20:28.178Z,4.38
2017-05-05T19:22:56.035Z,6.40
2017-05-05T19:25:24.034Z,5.03
2017-05-05T19:27:52.023Z,4.62
2017-05-05T19:30:19.561Z,4.93
2017-05-05T19:32:47.184Z,4.95
2017-05-05T19:35:15.456Z,4.40
2017-05-05T19:37:42.937Z,5.77
2017-05-05T19:40:10.795Z,5.53
2017-05-05T19:42:39.590Z,6.25
2017-05-05T19:45:07.522Z,5.02
2017-05-05T19:47:35.169Z,4.98
2017-05-05T19:50:02.975Z,5.03
2017-05-05T19:52:30.993Z,4.83
2017-05-05T19:55:00.159Z,4.35
2017-05-05T19:57:28.275Z,5.13
2017-05-05T19:59:56.142Z,4.98
2017-05-05T20:02:23.611Z,5.08
2017-05-05T20:04:51.841Z,6.03
2017-05-05T20:07:19.701Z,5.37
2017-05-05T20:09:47.559Z,5.78
2017-05-05T20:12:15.307Z,5.07
2017-05-05T20:14:43.364Z,5.10
2017-05-05T20:17:11.053Z,5.42
2017-05-05T20:19:39.515Z,5.70
2017-05-05T20:22:07.596Z,5.43
2017-05-05T20:24:35.456Z,4.57
2017-05-05T20:27:03.495Z,5.40
2017-05-05T20:29:31.972Z,7.03
2017-05-05T20:31:59.827Z,6.50
2017-05-05T20:34:28.251Z,6.78
2017-05-05T20:36:56.107Z,7.75
2017-05-05T20:39:23.568Z,7.62
2017-05-05T20:41:51.575Z,8.30
2017-05-05T20:44:19.432Z,8.05
2017-05-05T20:46:47.403Z,7.58
2017-05-05T20:49:15.414Z,7.70
2017-05-05T20:51:43.266Z,6.90
2017-05-05T20:54:11.491Z,8.02
2017-05-05T20:56:39.597Z,6.25
2017-05-05T20:59:07.639Z,6.68
2017-05-05T21:01:35.584Z,7.57
2017-05-05T21:04:03.867Z,6.10
2017-05-05T21:06:31.723Z,7.05
2017-05-05T21:08:59.181Z,7.58
2017-05-05T21:11:27.471Z,6.75
2017-05-05T21:13:56.183Z,6.30
2017-05-05T21:16:24.292Z,8.15
2017-05-05T21:18:52.300Z,7.02
2017-05-05T21:21:20.875Z,6.55
2017-05-05T21:23:48.738Z,5.55
2017-05-05T21:26:17.127Z,5.78
2017-05-05T21:28:44.990Z,5.98
2017-05-05T21:31:12.908Z,5.78
2017-05-05T21:33:40.625Z,6.12
2017-05-05T21:36:08.626Z,6.50
2017-05-05T21:38:36.498Z,5.92
2017-05-05T21:41:04.632Z,6.22
2017-05-05T21:43:32.100Z,6.58
2017-05-05T21:45:59.958Z,6.08
2017-05-05T21:48:28.131Z,6.75
2017-05-05T21:50:55.981Z,6.50
2017-05-05T21:53:23.944Z,6.47
2017-05-05T21:55:52.740Z,5.87
2017-05-05T21:58:20.606Z,7.27
2017-05-05T22:00:48.198Z,9.88
2017-05-05T22:03:16.892Z,8.28
2017-05-05T22:05:45.080Z,9.80
2017-05-05T22:08:13.323Z,12.88
2017-05-05T22:10:41.803Z,8.13
2017-05-05T22:13:09.908Z,7.67
2017-05-05T22:15:38.235Z,7.27
2017-05-05T22:18:06.616Z,6.78
2017-05-05T22:20:34.496Z,6.97
2017-05-05T22:23:02.600Z,7.45
2017-05-05T22:25:31.452Z,7.07
2017-05-05T22:27:58.959Z,7.73
2017-05-05T22:30:27.223Z,8.27
2017-05-05T22:32:55.738Z,8.63
2017-05-05T22:35:23.308Z,7.45
2017-05-05T22:37:51.292Z,7.32
2017-05-05T22:40:19.319Z,7.68
2017-05-05T22:42:47.200Z,7.65
2017-05-05T22:45:15.065Z,7.98
2017-05-05T22:47:42.859Z,7.28
2017-05-05T22:50:10.714Z,7.87
2017-05-05T22:52:38.568Z,7.18
2017-05-05T22:55:06.528Z,8.05
2017-05-05T22:57:34.378Z,7.80
2017-05-05T23:00:02.236Z,8.67
2017-05-05T23:02:29.975Z,8.58
2017-05-05T23:04:57.831Z,9.03
2017-05-05T23:07:25.682Z,8.07
2017-05-05T23:09:53.776Z,8.70
2017-05-05T23:12:21.629Z,7.97
2017-05-05T23:14:49.491Z,8.28
2017-05-05T23:17:17.382Z,7.77
2017-05-05T23:19:45.246Z,7.92
2017-05-05T23:22:13.107Z,7.60
2017-05-05T23:24:41.197Z,7.78
2017-05-05T23:27:09.684Z,7.47
2017-05-05T23:29:37.544Z,7.93
2017-05-05T23:32:05.928Z,7.25
2017-05-05T23:34:33.789Z,7.77
2017-05-05T23:37:01.279Z,8.38
2017-05-05T23:39:29.016Z,7.75
2017-05-05T23:41:57.264Z,7.97
2017-05-05T23:44:25.128Z,8.15
2017-05-05T23:46:53.492Z,8.40
2017-05-05T23:49:20.971Z,9.07
2017-05-05T23:51:48.817Z,8.18
2017-05-05T23:54:16.296Z,8.87
2017-05-05T23:56:44.143Z,8.77
2017-05-05T23:59:12.000Z,7.80
